Time;durP1;ratioP1;P1;durP2;ratioP2;P2;SDS_P1;SDS_P2;PMS_P1;PMS_P2;Temp;Humidity;BMP_temperature;BMP_pressure;BME280_temperature;BME280_humidity;BME280_pressure;Samples;Min_cycle;Max_cycle;Signal;HPM_P1;HPM_P2
2021/12/20 00:00:22;;;;;;;1.30;1.00;;;-1.00;99.90;;;;;;4914340;29;20045;-92
2021/12/20 00:03:14;;;;;;;1.35;1.10;;;-0.90;99.90;;;;;;4914423;29;20066;-94
2021/12/20 00:05:41;;;;;;;10.05;1.85;;;-1.30;99.90;;;;;;4931726;29;20480;-81
2021/12/20 00:08:07;;;;;;;0.73;0.73;;;-0.50;99.90;;;;;;4913456;29;20381;-82
2021/12/20 00:10:33;;;;;;;4.00;2.10;;;-0.30;99.90;;;;;;4912846;29;20034;-92
2021/12/20 00:12:59;;;;;;;7.68;1.50;;;-1.30;99.90;;;;;;4914357;29;20035;-89
2021/12/20 00:15:24;;;;;;;3.28;2.25;;;-1.20;99.90;;;;;;4914433;29;20563;-91
2021/12/20 00:17:50;;;;;;;1.65;1.55;;;-0.90;99.90;;;;;;4914217;29;20103;-95
2021/12/20 00:20:17;;;;;;;14.20;1.20;;;-1.30;99.90;;;;;;4914140;29;20090;-93
2021/12/20 00:22:43;;;;;;;3.15;1.20;;;-1.10;99.90;;;;;;4913622;29;20043;-93
2021/12/20 00:30:13;;;;;;;6.65;1.83;;;-1.30;99.90;;;;;;4930006;29;20063;-87
2021/12/20 00:32:40;;;;;;;3.80;1.27;;;-1.30;99.90;;;;;;4931328;29;20051;-93
2021/12/20 00:35:07;;;;;;;3.55;1.95;;;-0.40;99.90;;;;;;4914737;29;20028;-86
2021/12/20 00:40:21;;;;;;;4.60;1.27;;;-1.20;99.90;;;;;;4929771;29;20441;-81
2021/12/20 00:42:52;;;;;;;1.17;1.13;;;-1.20;99.90;;;;;;4929647;29;20043;-80
2021/12/20 00:45:19;;;;;;;0.80;0.80;;;-1.10;99.90;;;;;;4912649;29;20147;-80
2021/12/20 00:47:45;;;;;;;4.57;0.85;;;-1.10;99.90;;;;;;4913908;29;20032;-92
2021/12/20 00:50:13;;;;;;;0.85;0.85;;;-1.20;99.90;;;;;;4917128;29;20016;-93
2021/12/20 00:52:40;;;;;;;3.47;1.80;;;-0.80;99.90;;;;;;4930481;29;20051;-88
2021/12/20 00:55:12;;;;;;;3.83;1.63;;;-1.10;99.90;;;;;;4932126;29;20020;-93
2021/12/20 00:57:38;;;;;;;6.13;2.55;;;-1.30;99.90;;;;;;4917495;29;20078;-86
2021/12/20 01:00:29;;;;;;;3.25;1.83;;;-0.60;99.90;;;;;;4920767;29;20059;-92
2021/12/20 01:02:56;;;;;;;5.15;1.85;;;-1.40;99.90;;;;;;4935684;29;20460;-83
2021/12/20 01:05:23;;;;;;;1.63;1.38;;;-0.60;99.90;;;;;;4931765;29;20038;-79
2021/12/20 01:07:49;;;;;;;3.05;1.85;;;-1.10;99.90;;;;;;4934796;29;20047;-94
2021/12/20 01:10:16;;;;;;;2.50;1.73;;;-1.10;99.90;;;;;;4933421;29;20024;-92
2021/12/20 01:12:46;;;;;;;1.88;1.40;;;-1.10;99.90;;;;;;4916673;29;20032;-92
2021/12/20 01:15:14;;;;;;;;;;;-0.90;99.90;;;;;;4916890;29;20028;-91
2021/12/20 01:17:40;;;;;;;2.30;1.13;;;-1.00;99.90;;;;;;4916927;29;20188;-79
2021/12/20 01:20:07;;;;;;;9.15;3.10;;;-0.40;99.90;;;;;;4916139;29;20256;-83
2021/12/20 01:22:33;;;;;;;4.35;1.08;;;-1.10;99.90;;;;;;4916417;29;20135;-90
2021/12/20 01:24:59;;;;;;;4.65;2.22;;;-0.50;99.90;;;;;;4916149;29;20118;-81
2021/12/20 01:27:24;;;;;;;5.28;2.10;;;-0.70;99.90;;;;;;4916180;29;20032;-80
2021/12/20 01:29:50;;;;;;;5.30;2.40;;;-1.00;99.90;;;;;;4915890;29;20048;-81
2021/12/20 01:32:16;;;;;;;4.28;3.90;;;-0.90;99.90;;;;;;4915837;29;20034;-81
2021/12/20 01:34:42;;;;;;;2.50;1.83;;;-0.90;99.90;;;;;;4915551;29;20035;-81
2021/12/20 01:37:07;;;;;;;6.55;3.20;;;-1.10;99.90;;;;;;4932721;29;20528;-81
2021/12/20 01:39:33;;;;;;;2.58;2.15;;;-1.00;99.90;;;;;;4916901;29;20544;-84
2021/12/20 01:42:00;;;;;;;1.65;1.55;;;-0.80;99.90;;;;;;4932130;29;20428;-81
2021/12/20 01:44:26;;;;;;;8.82;2.83;;;-0.20;99.90;;;;;;4932312;29;20083;-84
2021/12/20 01:46:52;;;;;;;5.28;3.05;;;-0.70;99.90;;;;;;4935739;29;20080;-82
2021/12/20 01:49:18;;;;;;;3.33;1.67;;;-0.90;99.90;;;;;;4920122;29;20547;-80
2021/12/20 01:54:14;;;;;;;3.78;2.22;;;-0.90;99.90;;;;;;4937483;29;20488;-81
2021/12/20 01:56:43;;;;;;;7.00;1.90;;;-0.70;99.90;;;;;;4916613;29;20027;-81
2021/12/20 01:59:09;;;;;;;1.63;1.52;;;-0.80;99.90;;;;;;4932214;29;20389;-84
2021/12/20 02:01:36;;;;;;;6.75;1.23;;;-0.80;99.90;;;;;;4931956;29;20126;-80
2021/12/20 02:04:07;;;;;;;3.05;2.05;;;-0.90;99.90;;;;;;4932889;29;20035;-83
2021/12/20 02:06:40;;;;;;;4.10;1.10;;;-0.90;99.90;;;;;;4932060;29;20366;-82
2021/12/20 02:09:12;;;;;;;1.67;1.58;;;-1.00;99.90;;;;;;4914672;29;20090;-80
2021/12/20 02:11:40;;;;;;;10.68;2.42;;;-0.90;99.90;;;;;;4914459;29;20039;-83
2021/12/20 02:14:07;;;;;;;2.03;1.27;;;-0.50;99.90;;;;;;4914545;29;20027;-82
2021/12/20 02:16:34;;;;;;;3.35;2.53;;;-0.40;99.90;;;;;;4914563;29;20055;-83
2021/12/20 02:19:11;;;;;;;6.68;1.90;;;-0.90;99.90;;;;;;4931637;29;20114;-80
2021/12/20 02:21:37;;;;;;;1.92;1.83;;;-0.80;99.90;;;;;;4929182;29;20412;-81
2021/12/20 02:24:04;;;;;;;7.30;2.53;;;-1.00;99.90;;;;;;4914406;29;20397;-81
2021/12/20 02:26:30;;;;;;;3.55;3.00;;;-1.00;99.90;;;;;;4932091;29;20134;-84
2021/12/20 02:29:01;;;;;;;5.32;2.42;;;-1.00;99.90;;;;;;4911167;29;20064;-84
2021/12/20 02:39:40;;;;;;;2.38;1.77;;;-1.10;99.90;;;;;;4931297;29;20046;-82
2021/12/20 02:42:06;;;;;;;7.43;3.58;;;-1.20;99.90;;;;;;4931510;29;20114;-80
2021/12/20 02:44:32;;;;;;;3.50;2.13;;;-1.20;99.90;;;;;;4914211;29;20567;-81
2021/12/20 02:49:28;;;;;;;4.95;3.70;;;-1.20;99.90;;;;;;4930869;29;20552;-81
2021/12/20 02:51:58;;;;;;;;;;;-1.00;99.90;;;;;;4931051;29;20035;-83
2021/12/20 02:54:23;;;;;;;3.13;2.35;;;-0.90;99.90;;;;;;4930489;29;19911;-83
2021/12/20 02:56:50;;;;;;;5.65;3.40;;;-0.40;99.90;;;;;;4917889;29;20051;-81
2021/12/20 02:59:17;;;;;;;6.10;3.90;;;-1.20;99.90;;;;;;4940307;29;21100;-81
2021/12/20 03:01:49;;;;;;;7.05;3.28;;;-1.10;99.90;;;;;;4922922;29;20043;-82
2021/12/20 03:04:16;;;;;;;5.00;2.75;;;-1.00;99.90;;;;;;4920122;29;20058;-84
2021/12/20 03:06:54;;;;;;;4.80;2.75;;;-1.00;99.90;;;;;;4931355;29;20019;-85
2021/12/20 03:09:27;;;;;;;14.38;5.03;;;-1.00;99.90;;;;;;4931460;29;20024;-81
2021/12/20 03:11:55;;;;;;;16.77;7.03;;;-0.90;99.90;;;;;;4914162;29;20119;-83
2021/12/20 03:14:31;;;;;;;4.68;2.97;;;-1.00;99.90;;;;;;4930372;29;20409;-81
2021/12/20 03:16:58;;;;;;;8.45;4.05;;;-1.00;99.90;;;;;;4914023;29;20028;-80
2021/12/20 03:19:24;;;;;;;12.27;5.18;;;-1.00;99.90;;;;;;4930022;29;20106;-82
2021/12/20 03:21:50;;;;;;;17.27;6.00;;;-1.10;99.90;;;;;;4912594;29;20032;-81
2021/12/20 03:24:16;;;;;;;20.63;3.83;;;-0.80;99.90;;;;;;4913765;29;20067;-81
2021/12/20 03:26:43;;;;;;;17.95;3.53;;;-1.10;99.90;;;;;;4930566;29;20062;-84
2021/12/20 03:29:09;;;;;;;6.40;3.60;;;-0.90;99.90;;;;;;4913959;29;20400;-81
2021/12/20 03:31:34;;;;;;;3.50;3.25;;;-0.70;99.90;;;;;;4913796;29;20028;-83
2021/12/20 03:34:02;;;;;;;18.90;3.05;;;-1.10;99.90;;;;;;4914099;29;20034;-81
2021/12/20 03:36:28;;;;;;;18.67;3.97;;;-1.20;99.90;;;;;;4914284;29;20099;-81
2021/12/20 03:38:54;;;;;;;8.95;4.45;;;-1.20;99.90;;;;;;4933435;29;20031;-84
2021/12/20 03:41:20;;;;;;;3.67;3.38;;;-1.10;99.90;;;;;;4913895;29;20076;-83
2021/12/20 03:43:46;;;;;;;9.38;3.88;;;-1.10;99.90;;;;;;4913174;29;20055;-81
2021/12/20 03:46:12;;;;;;;12.02;3.45;;;-1.10;99.90;;;;;;4913246;29;20028;-83
2021/12/20 03:48:38;;;;;;;6.07;3.97;;;-1.10;99.90;;;;;;4913330;29;20031;-81
2021/12/20 03:51:05;;;;;;;8.57;3.40;;;-1.10;99.90;;;;;;4930808;29;20028;-81
2021/12/20 03:53:33;;;;;;;14.48;4.25;;;-1.10;99.90;;;;;;4912853;29;20459;-81
2021/12/20 03:55:59;;;;;;;11.50;4.75;;;-1.10;99.90;;;;;;4912902;29;20473;-81
2021/12/20 03:58:27;;;;;;;4.63;3.30;;;-1.20;99.90;;;;;;4914325;29;20536;-81
2021/12/20 04:00:55;;;;;;;9.30;6.40;;;-0.60;99.90;;;;;;4916015;29;20051;-81
2021/12/20 04:03:20;;;;;;;12.00;4.53;;;-1.10;99.90;;;;;;4916344;29;20079;-81
2021/12/20 04:05:46;;;;;;;9.45;4.97;;;0.00;99.90;;;;;;4916938;29;20024;-82
2021/12/20 04:08:12;;;;;;;7.20;3.17;;;-1.10;99.90;;;;;;4920031;29;20396;-82
2021/12/20 04:10:37;;;;;;;18.98;5.45;;;-0.80;99.90;;;;;;4920224;29;20055;-82
2021/12/20 04:13:03;;;;;;;7.75;4.15;;;-1.10;99.90;;;;;;4937944;29;20392;-81
2021/12/20 04:15:29;;;;;;;17.70;4.32;;;-1.00;99.90;;;;;;4937891;29;20020;-82
2021/12/20 04:17:55;;;;;;;11.35;3.78;;;-0.80;99.90;;;;;;4916086;29;20469;-84
2021/12/20 04:20:21;;;;;;;9.60;3.13;;;-0.40;99.90;;;;;;4914035;29;20032;-82
2021/12/20 04:22:46;;;;;;;8.55;3.42;;;-0.40;99.90;;;;;;4919644;29;20118;-81
2021/12/20 04:25:12;;;;;;;14.35;5.38;;;-0.90;99.90;;;;;;4919705;29;20036;-81
2021/12/20 04:27:38;;;;;;;7.10;4.50;;;-0.90;99.90;;;;;;4916138;29;20036;-82
2021/12/20 04:30:10;;;;;;;6.18;3.47;;;-0.90;99.90;;;;;;4913813;29;20080;-82
2021/12/20 04:32:38;;;;;;;18.33;4.22;;;-0.30;99.90;;;;;;4934201;29;20067;-82
2021/12/20 04:35:05;;;;;;;6.47;3.28;;;-1.00;99.90;;;;;;4920392;29;20388;-81
2021/12/20 04:37:30;;;;;;;10.05;3.38;;;-1.00;99.90;;;;;;4919382;29;20535;-80
2021/12/20 04:39:57;;;;;;;7.78;4.65;;;-0.90;99.90;;;;;;4935627;29;20051;-81
2021/12/20 04:42:23;;;;;;;11.30;4.20;;;-0.90;99.90;;;;;;4918571;29;20132;-81
2021/12/20 04:44:48;;;;;;;9.60;3.75;;;-0.90;99.90;;;;;;4919705;29;20099;-81
2021/12/20 04:47:14;;;;;;;4.28;3.08;;;-0.90;99.90;;;;;;4937804;29;20031;-81
2021/12/20 04:49:40;;;;;;;14.85;5.65;;;-1.00;99.90;;;;;;4937462;29;20070;-81
2021/12/20 04:52:05;;;;;;;5.88;5.30;;;-1.10;99.90;;;;;;4937161;29;20027;-81
2021/12/20 04:54:31;;;;;;;12.52;5.35;;;-0.60;99.90;;;;;;4938081;29;20055;-82
2021/12/20 04:56:57;;;;;;;27.98;6.40;;;-1.10;99.90;;;;;;4921774;29;20451;-81
2021/12/20 04:59:22;;;;;;;6.85;3.88;;;-0.70;99.90;;;;;;4921512;29;20027;-82
2021/12/20 05:01:48;;;;;;;10.80;6.18;;;-0.60;99.90;;;;;;4920846;29;20031;-81
2021/12/20 05:04:14;;;;;;;15.98;4.13;;;-1.00;99.90;;;;;;4936823;29;20476;-81
2021/12/20 05:06:39;;;;;;;7.57;4.45;;;-1.10;99.90;;;;;;4920104;29;20489;-80
2021/12/20 05:09:06;;;;;;;10.35;3.95;;;-1.10;99.90;;;;;;4937493;29;20463;-81
2021/12/20 05:11:36;;;;;;;19.15;6.70;;;-0.60;99.90;;;;;;4920971;29;20042;-81
2021/12/20 05:14:02;;;;;;;4.47;3.58;;;-1.00;99.90;;;;;;4937824;29;20099;-82
2021/12/20 05:16:28;;;;;;;17.70;4.32;;;-1.00;99.90;;;;;;4919827;29;20030;-81
2021/12/20 05:18:54;;;;;;;6.88;4.63;;;-1.00;99.90;;;;;;4920021;29;20032;-80
2021/12/20 05:21:20;;;;;;;5.70;2.67;;;-0.70;99.90;;;;;;4919738;29;20040;-81
2021/12/20 05:23:46;;;;;;;6.40;4.30;;;-0.90;99.90;;;;;;4921784;29;20091;-82
2021/12/20 05:26:11;;;;;;;4.00;2.92;;;-0.90;99.90;;;;;;4921405;29;20103;-82
2021/12/20 05:28:37;;;;;;;8.90;3.58;;;-0.80;99.90;;;;;;4936360;29;20048;-81
2021/12/20 05:31:03;;;;;;;6.18;3.20;;;-0.90;99.90;;;;;;4936416;29;20038;-80
2021/12/20 05:33:29;;;;;;;7.47;4.13;;;-0.30;99.90;;;;;;4918303;29;20035;-81
2021/12/20 05:35:54;;;;;;;6.50;5.50;;;-0.80;99.90;;;;;;4918357;29;20119;-81
2021/12/20 05:38:20;;;;;;;20.58;5.30;;;-0.90;99.90;;;;;;4934330;29;20507;-81
2021/12/20 05:40:46;;;;;;;12.98;4.88;;;-0.80;99.90;;;;;;4933786;29;20392;-81
2021/12/20 05:43:12;;;;;;;6.53;5.28;;;-0.80;99.90;;;;;;4933312;29;20447;-82
2021/12/20 05:45:38;;;;;;;8.70;3.47;;;-0.40;99.90;;;;;;4922164;29;20102;-81
2021/12/20 05:48:04;;;;;;;7.82;3.92;;;-0.50;99.90;;;;;;4931224;29;20104;-81
2021/12/20 05:50:31;;;;;;;14.45;5.85;;;-0.80;99.90;;;;;;4926940;29;20027;-82
2021/12/20 05:52:57;;;;;;;5.30;4.03;;;-0.80;99.90;;;;;;4909441;29;20034;-81
2021/12/20 05:55:23;;;;;;;10.63;3.25;;;-0.80;99.90;;;;;;4928033;29;20028;-81
2021/12/20 05:57:48;;;;;;;6.70;3.22;;;-0.80;99.90;;;;;;4912698;29;20681;-82
2021/12/20 06:00:18;;;;;;;6.47;3.42;;;-0.70;99.90;;;;;;4909439;29;20024;-81
2021/12/20 06:02:46;;;;;;;9.23;4.00;;;-0.50;99.90;;;;;;4907855;29;20409;-81
2021/12/20 06:05:12;;;;;;;10.55;5.03;;;-0.40;99.90;;;;;;4907896;29;20107;-83
2021/12/20 06:07:42;;;;;;;5.80;3.03;;;-0.40;99.90;;;;;;4908074;29;20408;-81
2021/12/20 06:10:12;;;;;;;5.82;1.80;;;-0.50;99.90;;;;;;4907544;29;20341;-81
2021/12/20 06:12:39;;;;;;;;;;;-0.50;99.90;;;;;;4925316;29;20043;-86
2021/12/20 06:15:06;;;;;;;8.63;4.35;;;-0.40;99.90;;;;;;4924951;29;19997;-81
2021/12/20 06:17:32;;;;;;;9.88;2.92;;;-0.70;99.90;;;;;;4926478;29;20074;-81
2021/12/20 06:19:58;;;;;;;7.47;3.20;;;-0.70;99.90;;;;;;4928782;29;20043;-80
2021/12/20 06:22:23;;;;;;;15.90;5.05;;;-0.70;99.90;;;;;;4908859;29;20050;-83
2021/12/20 06:24:49;;;;;;;17.67;3.58;;;-0.30;99.90;;;;;;4908776;29;20361;-81
2021/12/20 06:27:15;;;;;;;9.27;6.53;;;-0.60;99.90;;;;;;4909325;29;20110;-83
2021/12/20 06:29:41;;;;;;;7.07;3.03;;;-0.70;99.90;;;;;;4926779;29;20528;-83
2021/12/20 06:32:07;;;;;;;3.40;3.13;;;-0.60;99.90;;;;;;4908266;29;20515;-81
2021/12/20 06:34:33;;;;;;;11.65;5.03;;;-0.60;99.90;;;;;;4925241;29;20027;-81
2021/12/20 06:37:00;;;;;;;5.72;2.63;;;-0.60;99.90;;;;;;4906771;29;20082;-80
2021/12/20 06:39:25;;;;;;;9.25;4.68;;;-0.60;99.90;;;;;;4909612;29;20556;-81
2021/12/20 06:41:51;;;;;;;12.15;4.35;;;-0.70;99.90;;;;;;4912403;29;20062;-81
2021/12/20 06:44:18;;;;;;;8.50;4.43;;;-0.70;99.90;;;;;;4909633;29;20047;-81
2021/12/20 06:46:44;;;;;;;9.50;4.88;;;-0.60;99.90;;;;;;4923409;29;20019;-81
2021/12/20 06:49:11;;;;;;;4.45;3.47;;;-0.30;99.90;;;;;;4908805;29;20082;-81
2021/12/20 06:51:40;;;;;;;6.72;3.53;;;-0.50;99.90;;;;;;4926670;29;20028;-81
2021/12/20 06:54:08;;;;;;;6.95;4.25;;;-0.60;99.90;;;;;;4907990;29;20396;-81
2021/12/20 06:56:34;;;;;;;6.45;4.28;;;-0.50;99.90;;;;;;4924768;29;20305;-81
2021/12/20 06:58:59;;;;;;;13.00;4.18;;;-0.60;99.90;;;;;;4908406;29;20664;-80
2021/12/20 07:01:25;;;;;;;7.20;3.60;;;-0.60;99.90;;;;;;4925723;29;20023;-81
2021/12/20 07:03:51;;;;;;;4.43;2.88;;;-0.60;99.90;;;;;;4925152;29;20086;-81
2021/12/20 07:06:17;;;;;;;4.43;3.70;;;-0.40;99.90;;;;;;4910044;29;20052;-81
2021/12/20 07:08:43;;;;;;;5.55;2.80;;;-0.60;99.90;;;;;;4910474;29;20027;-81
2021/12/20 07:11:09;;;;;;;15.38;3.85;;;-0.50;99.90;;;;;;4926933;29;20032;-81
2021/12/20 07:13:35;;;;;;;9.65;3.55;;;-0.70;99.90;;;;;;4909766;29;20082;-81
2021/12/20 07:16:01;;;;;;;11.10;5.78;;;-0.70;99.90;;;;;;4908824;29;20028;-80
2021/12/20 07:18:26;;;;;;;8.00;3.70;;;-0.60;99.90;;;;;;4922819;29;20033;-81
2021/12/20 07:20:52;;;;;;;13.60;5.88;;;-0.40;99.90;;;;;;4926407;29;20110;-80
2021/12/20 07:23:18;;;;;;;14.13;4.85;;;-0.70;99.90;;;;;;4908666;29;20063;-80
2021/12/20 07:25:44;;;;;;;12.02;3.10;;;-0.60;99.90;;;;;;4908990;29;20568;-81
2021/12/20 07:28:10;;;;;;;10.52;5.07;;;-0.60;99.90;;;;;;4909195;29;20047;-81
2021/12/20 07:30:36;;;;;;;8.07;4.47;;;-0.60;99.90;;;;;;4909612;29;20485;-81
2021/12/20 07:33:02;;;;;;;8.95;3.88;;;-0.50;99.90;;;;;;4910654;29;20086;-81
2021/12/20 07:35:27;;;;;;;14.02;5.50;;;-0.60;99.90;;;;;;4909526;29;20337;-81
2021/12/20 07:37:56;;;;;;;8.82;5.32;;;-0.70;99.90;;;;;;4908761;29;20043;-80
2021/12/20 07:40:23;;;;;;;6.17;3.83;;;-0.70;99.90;;;;;;4907525;29;20105;-81
2021/12/20 07:42:48;;;;;;;9.90;3.65;;;-0.70;99.90;;;;;;4905988;29;20067;-81
2021/12/20 07:45:15;;;;;;;4.15;2.97;;;-0.20;99.90;;;;;;4923395;29;20493;-81
2021/12/20 07:47:40;;;;;;;12.77;4.20;;;-0.70;99.90;;;;;;4923819;29;20020;-81
2021/12/20 07:50:07;;;;;;;6.80;3.72;;;-0.60;99.90;;;;;;4908177;29;20087;-80
2021/12/20 07:52:33;;;;;;;12.60;4.38;;;-0.60;99.90;;;;;;4923464;29;20020;-81
2021/12/20 07:55:00;;;;;;;9.38;3.33;;;-0.60;99.90;;;;;;4912390;29;20032;-81
2021/12/20 07:57:26;;;;;;;12.50;5.80;;;-0.50;99.90;;;;;;4932987;29;20039;-79
2021/12/20 07:59:52;;;;;;;4.85;3.85;;;-0.40;99.90;;;;;;4907010;29;20114;-79
2021/12/20 08:02:17;;;;;;;5.35;4.00;;;-0.30;99.90;;;;;;4922857;29;20646;-79
2021/12/20 08:04:48;;;;;;;14.88;6.82;;;-0.50;99.90;;;;;;4927155;29;20094;-80
2021/12/20 08:07:15;;;;;;;14.35;5.82;;;-0.40;99.90;;;;;;4928139;29;20035;-79
2021/12/20 08:09:40;;;;;;;14.48;7.03;;;-0.30;99.90;;;;;;4928456;29;20020;-80
2021/12/20 08:12:07;;;;;;;7.88;5.28;;;-0.20;99.90;;;;;;4912823;29;20514;-79
2021/12/20 08:14:32;;;;;;;8.75;4.22;;;-0.20;99.90;;;;;;4911401;29;20019;-79
2021/12/20 08:16:59;;;;;;;11.98;4.13;;;-0.20;99.90;;;;;;4929264;29;20059;-78
2021/12/20 08:19:25;;;;;;;8.65;5.60;;;-0.20;99.90;;;;;;4911957;29;20058;-79
2021/12/20 08:21:51;;;;;;;7.50;3.70;;;-0.10;99.90;;;;;;4918335;29;20113;-80
2021/12/20 08:24:17;;;;;;;9.25;4.43;;;-0.10;99.90;;;;;;4954882;29;20527;-79
2021/12/20 08:26:42;;;;;;;12.45;5.22;;;-0.10;99.90;;;;;;4953827;29;20477;-79
2021/12/20 08:29:08;;;;;;;12.25;4.55;;;0.00;99.90;;;;;;4937345;29;20078;-78
2021/12/20 08:31:36;;;;;;;4.95;2.85;;;0.00;99.90;;;;;;4937587;29;20024;-78
2021/12/20 08:34:02;;;;;;;6.32;3.97;;;0.00;99.90;;;;;;4937989;29;20126;-78
2021/12/20 08:36:28;;;;;;;7.85;4.25;;;0.00;99.90;;;;;;4937472;28;20078;-79
2021/12/20 08:38:54;;;;;;;5.22;2.95;;;0.10;99.90;;;;;;4938090;29;20031;-78
2021/12/20 08:41:20;;;;;;;6.57;4.72;;;0.10;99.90;;;;;;4955066;29;20134;-78
2021/12/20 08:43:46;;;;;;;9.20;4.55;;;0.10;99.90;;;;;;4955051;29;20560;-79
2021/12/20 08:46:13;;;;;;;9.23;3.58;;;0.20;99.90;;;;;;4955116;29;20027;-78
2021/12/20 08:48:39;;;;;;;12.10;4.72;;;0.20;99.90;;;;;;4954684;28;20053;-78
2021/12/20 08:51:05;;;;;;;7.70;3.85;;;0.30;99.90;;;;;;4938540;29;20481;-78
2021/12/20 08:53:30;;;;;;;10.77;3.30;;;0.40;99.90;;;;;;4955568;29;20031;-78
2021/12/20 08:55:57;;;;;;;14.40;4.95;;;0.50;99.90;;;;;;4955333;28;20475;-79
2021/12/20 08:58:24;;;;;;;12.75;4.95;;;0.60;99.90;;;;;;4956099;29;20489;-79
2021/12/20 09:00:50;;;;;;;8.60;5.03;;;0.70;99.90;;;;;;4948607;29;20104;-78
2021/12/20 09:03:16;;;;;;;16.02;6.00;;;0.80;99.90;;;;;;4934777;29;20453;-80
2021/12/20 09:05:42;;;;;;;16.35;4.00;;;0.90;99.90;;;;;;4936753;29;20564;-80
2021/12/20 09:08:09;;;;;;;8.73;5.13;;;1.00;99.90;;;;;;4935328;29;20032;-79
2021/12/20 09:10:36;;;;;;;7.53;4.00;;;1.00;99.90;;;;;;4918902;29;20098;-79
2021/12/20 09:13:04;;;;;;;8.25;4.20;;;1.30;99.90;;;;;;4935066;29;20040;-78
2021/12/20 09:15:31;;;;;;;8.40;3.57;;;1.20;99.90;;;;;;4933692;29;20135;-79
2021/12/20 09:17:57;;;;;;;9.68;5.40;;;1.30;99.90;;;;;;4915055;29;20031;-78
2021/12/20 09:20:26;;;;;;;8.70;4.47;;;1.40;99.90;;;;;;4915739;29;20024;-77
2021/12/20 09:22:53;;;;;;;13.60;6.72;;;1.40;99.90;;;;;;4915206;29;20827;-77
2021/12/20 09:25:21;;;;;;;6.35;3.08;;;1.40;99.90;;;;;;4916220;29;20039;-76
2021/12/20 09:27:47;;;;;;;8.45;4.03;;;1.40;99.90;;;;;;4915370;29;20047;-78
2021/12/20 09:30:15;;;;;;;8.52;4.82;;;1.40;99.90;;;;;;4915988;29;20071;-78
2021/12/20 09:32:40;;;;;;;15.20;4.38;;;1.50;99.90;;;;;;4930892;29;20019;-78
2021/12/20 09:35:07;;;;;;;5.72;3.08;;;1.60;99.90;;;;;;4915255;29;20122;-78
2021/12/20 09:37:33;;;;;;;13.18;4.70;;;1.60;99.90;;;;;;4915070;29;20119;-77
2021/12/20 09:40:00;;;;;;;6.47;4.15;;;1.60;99.90;;;;;;4913441;29;20572;-78
2021/12/20 09:42:26;;;;;;;3.80;3.00;;;1.50;99.90;;;;;;4913380;29;20094;-79
2021/12/20 09:44:54;;;;;;;5.10;3.25;;;1.40;99.90;;;;;;4913200;29;20087;-77
2021/12/20 09:47:19;;;;;;;5.10;2.88;;;1.40;99.90;;;;;;4930613;29;20118;-78
2021/12/20 09:49:45;;;;;;;7.82;4.50;;;1.30;99.90;;;;;;4930722;29;20111;-79
2021/12/20 09:52:12;;;;;;;11.10;3.53;;;1.10;99.90;;;;;;4915788;29;20031;-79
2021/12/20 09:54:39;;;;;;;4.75;3.45;;;1.00;99.90;;;;;;4933124;29;20023;-78
2021/12/20 09:57:08;;;;;;;6.95;4.47;;;1.00;99.90;;;;;;4919012;29;20316;-78
2021/12/20 09:59:36;;;;;;;11.45;4.53;;;1.10;99.90;;;;;;4937439;29;20024;-79
2021/12/20 10:02:07;;;;;;;5.25;3.90;;;1.10;99.90;;;;;;4921247;29;20036;-78
2021/12/20 10:04:34;;;;;;;10.23;4.15;;;1.10;99.90;;;;;;4914741;29;20071;-78
2021/12/20 10:07:01;;;;;;;2.55;2.35;;;1.10;99.90;;;;;;4934077;29;20099;-78
2021/12/20 10:09:32;;;;;;;11.82;5.07;;;1.10;99.90;;;;;;4915351;29;20031;-78
2021/12/20 10:12:11;;;;;;;8.85;3.55;;;1.20;99.90;;;;;;4930623;29;20035;-77
2021/12/20 10:15:00;;;;;;;11.48;5.03;;;1.10;99.90;;;;;;4931120;29;20107;-79
2021/12/20 10:17:36;;;;;;;11.65;4.60;;;1.10;99.90;;;;;;4913919;29;20024;-79
2021/12/20 10:20:23;;;;;;;15.50;4.80;;;1.00;99.90;;;;;;4932018;29;20028;-79
2021/12/20 10:22:54;;;;;;;6.35;3.70;;;0.90;99.90;;;;;;4931457;29;20355;-79
2021/12/20 10:25:30;;;;;;;2.50;2.30;;;0.90;99.90;;;;;;4914875;29;20075;-78
2021/12/20 10:28:11;;;;;;;7.47;2.50;;;0.80;99.90;;;;;;4913850;29;20051;-78
2021/12/20 10:30:42;;;;;;;10.55;4.22;;;0.80;99.90;;;;;;4914689;29;20032;-78
2021/12/20 10:33:12;;;;;;;10.02;3.33;;;0.90;99.90;;;;;;4914369;29;20110;-78
2021/12/20 10:35:43;;;;;;;6.03;2.72;;;0.90;99.90;;;;;;4931758;29;20031;-77
2021/12/20 10:38:18;;;;;;;13.32;4.18;;;0.90;99.90;;;;;;4913890;29;20043;-78
2021/12/20 10:41:32;;;;;;;6.70;5.55;;;1.00;99.90;;;;;;4914285;29;20417;-78
2021/12/20 10:44:01;;;;;;;8.50;3.20;;;1.00;99.90;;;;;;4939561;29;20139;-76
2021/12/20 10:46:34;;;;;;;8.65;4.03;;;0.90;99.90;;;;;;4934231;29;20432;-75
2021/12/20 10:49:14;;;;;;;5.45;2.90;;;0.90;99.90;;;;;;4935401;29;20062;-75
2021/12/20 10:51:43;;;;;;;7.43;4.07;;;1.10;99.90;;;;;;4915212;29;20020;-77
2021/12/20 10:54:12;;;;;;;8.10;4.43;;;1.20;99.90;;;;;;4914320;29;20047;-76
2021/12/20 10:56:47;;;;;;;23.13;4.47;;;1.20;99.90;;;;;;4931163;29;20030;-76
2021/12/20 10:59:13;;;;;;;12.85;5.65;;;1.20;99.90;;;;;;4914182;29;20036;-76
2021/12/20 11:04:22;;;;;;;;;;;1.20;99.90;;;;;;4936328;29;20078;-76
2021/12/20 11:09:26;;;;;;;8.93;3.42;;;1.50;99.90;;;;;;4928986;29;20036;-76
2021/12/20 11:11:58;;;;;;;13.85;4.97;;;1.60;99.90;;;;;;4930899;29;20024;-76
2021/12/20 11:14:33;;;;;;;6.43;3.38;;;1.50;99.90;;;;;;4930952;29;20042;-77
2021/12/20 11:17:02;;;;;;;10.90;4.55;;;1.60;99.90;;;;;;4930583;29;20028;-76
2021/12/20 11:19:32;;;;;;;5.85;2.95;;;1.60;99.90;;;;;;4917514;29;20063;-81
2021/12/20 11:22:09;;;;;;;13.00;3.35;;;1.60;99.90;;;;;;4919662;29;20036;-75
2021/12/20 11:24:39;;;;;;;3.40;3.00;;;1.60;99.90;;;;;;4911582;29;20127;-75
2021/12/20 11:27:09;;;;;;;6.22;3.92;;;1.60;99.90;;;;;;4930115;29;20039;-77
2021/12/20 11:29:36;;;;;;;10.77;4.13;;;1.80;99.90;;;;;;4911211;29;20059;-75
2021/12/20 11:32:04;;;;;;;11.00;4.22;;;1.80;99.90;;;;;;4911964;29;20055;-77
2021/12/20 11:34:31;;;;;;;9.85;5.97;;;1.80;99.90;;;;;;4912316;29;20519;-76
2021/12/20 11:36:57;;;;;;;12.43;5.57;;;1.90;99.90;;;;;;4929324;29;20509;-77
2021/12/20 11:39:24;;;;;;;3.58;2.05;;;1.90;99.90;;;;;;4928977;29;20031;-75
2021/12/20 11:41:50;;;;;;;5.07;2.42;;;2.00;99.90;;;;;;4929564;29;20508;-77
2021/12/20 11:44:19;;;;;;;8.57;3.75;;;2.10;99.90;;;;;;4912976;29;20036;-77
2021/12/20 11:47:03;;;;;;;3.83;2.45;;;2.20;99.90;;;;;;4913127;29;20034;-79
2021/12/20 11:49:31;;;;;;;4.88;3.15;;;2.30;99.90;;;;;;4912704;29;20024;-76
2021/12/20 11:51:58;;;;;;;9.13;3.10;;;2.40;99.90;;;;;;4913165;29;20028;-76
2021/12/20 11:54:51;;;;;;;7.15;3.53;;;2.50;99.90;;;;;;4915878;29;20034;-77
2021/12/20 11:57:57;;;;;;;5.18;2.45;;;2.50;99.90;;;;;;4913941;29;20047;-79
2021/12/20 12:00:50;;;;;;;7.20;2.88;;;2.60;99.90;;;;;;4837088;29;20038;-76
2021/12/20 12:03:16;;;;;;;4.20;2.28;;;2.60;99.90;;;;;;4838945;29;20257;-76
2021/12/20 12:05:49;;;;;;;5.63;3.72;;;2.50;99.90;;;;;;4892485;29;20059;-79
2021/12/20 12:08:29;;;;;;;5.15;3.13;;;2.40;99.90;;;;;;4923446;29;20020;-74
2021/12/20 12:10:59;;;;;;;6.57;3.35;;;2.40;99.90;;;;;;4924791;29;20042;-79
2021/12/20 12:13:28;;;;;;;7.35;3.75;;;2.50;99.90;;;;;;4940977;29;20059;-78
2021/12/20 12:16:03;;;;;;;5.95;3.97;;;2.50;99.90;;;;;;4926122;29;20231;-79
2021/12/20 12:18:50;;;;;;;3.17;2.85;;;2.90;99.90;;;;;;4922086;29;20032;-80
2021/12/20 12:21:36;;;;;;;10.32;2.92;;;3.00;99.90;;;;;;4924780;29;20106;-80
2021/12/20 12:24:14;;;;;;;4.68;1.90;;;2.90;99.90;;;;;;4940672;29;20398;-80
2021/12/20 12:26:46;;;;;;;7.03;3.13;;;2.90;99.90;;;;;;4938654;29;20068;-77
2021/12/20 12:29:21;;;;;;;46.00;8.43;;;2.80;99.90;;;;;;4936917;29;20187;-80
2021/12/20 12:32:00;;;;;;;5.00;3.63;;;2.80;99.90;;;;;;4921772;29;20346;-79
2021/12/20 12:34:40;;;;;;;4.47;3.47;;;2.80;99.90;;;;;;4930490;29;20028;-78
2021/12/20 12:37:23;;;;;;;3.00;2.15;;;2.90;99.90;;;;;;4942458;29;20026;-81
2021/12/20 12:39:49;;;;;;;8.55;4.50;;;2.90;99.90;;;;;;4924362;29;20030;-79
2021/12/20 12:42:37;;;;;;;12.45;4.78;;;3.10;99.90;;;;;;4940456;29;20063;-80
2021/12/20 12:45:03;;;;;;;2.90;2.13;;;3.10;99.90;;;;;;4922523;29;20331;-78
2021/12/20 12:47:35;;;;;;;5.32;2.50;;;3.10;99.90;;;;;;4938077;29;20704;-77
2021/12/20 12:50:01;;;;;;;4.18;2.38;;;3.10;99.90;;;;;;4936318;29;20111;-78
2021/12/20 12:52:26;;;;;;;6.75;2.78;;;3.10;99.90;;;;;;4923061;29;20343;-78
2021/12/20 12:54:54;;;;;;;4.60;2.40;;;3.20;99.90;;;;;;4927277;29;20028;-78
2021/12/20 12:57:19;;;;;;;3.55;2.05;;;3.20;99.90;;;;;;4944225;29;20024;-78
2021/12/20 12:59:50;;;;;;;8.35;3.58;;;3.20;99.90;;;;;;4927396;29;20059;-78
2021/12/20 13:02:36;;;;;;;8.60;3.20;;;3.20;99.90;;;;;;4924920;29;20035;-78
2021/12/20 13:05:17;;;;;;;5.15;2.47;;;3.30;99.90;;;;;;4943595;29;20493;-77
2021/12/20 13:08:02;;;;;;;6.13;2.45;;;3.50;99.90;;;;;;4927189;29;20244;-79
2021/12/20 13:10:37;;;;;;;6.15;2.75;;;3.60;99.90;;;;;;4943639;29;20078;-79
2021/12/20 13:13:13;;;;;;;4.35;2.67;;;4.00;99.90;;;;;;4928214;29;20331;-77
2021/12/20 13:15:52;;;;;;;7.53;3.03;;;4.70;99.90;;;;;;4928692;29;20374;-78
2021/12/20 13:18:37;;;;;;;3.92;2.78;;;5.30;99.90;;;;;;4918689;29;20031;-79
2021/12/20 13:21:06;;;;;;;5.45;3.20;;;6.20;99.90;;;;;;4937860;29;20059;-78